Weather at Waldron Municipal Airport

Public forecast

Using degrees Fahrenheit for public forecast. Weather courtesy of forecast.io.

Closest aviation weather report (METAR) to Waldron Municipal Airport

Closest report is Mena Intermountain Municipal Airport, 20.4 nm (37.7 km) SSW. Retrieved 2022/05/22 21:55 UTC (11 minutes ago):

KMEZ 222155Z AUTO 07008KT 10SM SCT007 SCT012 OVC021 16/15 A3022 RMK AO2

Closest aviation forecast (TAF) to Waldron Municipal Airport

Closest forecast is Fort Smith Regional Airport, 30.4 nm (56.3 km) NNW. Retrieved 2022/05/22 18:30 UTC (4 hours ago):

TAF KFSM 221727Z 2218/2318 06013KT P6SM OVC040 FM230200 09005KT P6SM OVC040